sensor_id;sensor_type;location;lat;lon;timestamp;temperature;humidity
33988;DHT22;37428;53.580;-1.666;2022-09-03T00:03:22;17.30;87.30
33988;DHT22;37428;53.580;-1.666;2022-09-03T00:10:45;17.40;86.80
33988;DHT22;37428;53.580;-1.666;2022-09-03T00:13:56;17.50;87.50
33988;DHT22;37428;53.580;-1.666;2022-09-03T00:17:06;17.60;86.80
33988;DHT22;37428;53.580;-1.666;2022-09-03T00:20:12;17.60;86.80
33988;DHT22;37428;53.580;-1.666;2022-09-03T00:23:20;17.50;86.90
33988;DHT22;37428;53.580;-1.666;2022-09-03T00:26:45;17.40;87.50
33988;DHT22;37428;53.580;-1.666;2022-09-03T00:30:49;17.40;87.60
33988;DHT22;37428;53.580;-1.666;2022-09-03T00:33:38;17.30;88.30
33988;DHT22;37428;53.580;-1.666;2022-09-03T00:36:53;17.30;88.50
33988;DHT22;37428;53.580;-1.666;2022-09-03T00:39:56;17.30;88.70
33988;DHT22;37428;53.580;-1.666;2022-09-03T00:51:00;17.30;89.00
33988;DHT22;37428;53.580;-1.666;2022-09-03T00:54:11;17.40;88.80
33988;DHT22;37428;53.580;-1.666;2022-09-03T00:57:51;17.40;88.70
33988;DHT22;37428;53.580;-1.666;2022-09-03T01:03:15;17.30;88.70
33988;DHT22;37428;53.580;-1.666;2022-09-03T01:04:59;17.30;89.00
33988;DHT22;37428;53.580;-1.666;2022-09-03T01:08:32;17.20;89.50
33988;DHT22;37428;53.580;-1.666;2022-09-03T01:12:05;17.20;89.60
33988;DHT22;37428;53.580;-1.666;2022-09-03T01:16:01;17.10;90.00
33988;DHT22;37428;53.580;-1.666;2022-09-03T01:19:46;17.10;90.10
33988;DHT22;37428;53.580;-1.666;2022-09-03T01:23:36;17.10;90.60
33988;DHT22;37428;53.580;-1.666;2022-09-03T01:34:38;16.90;91.80
33988;DHT22;37428;53.580;-1.666;2022-09-03T01:38:16;17.00;91.60
33988;DHT22;37428;53.580;-1.666;2022-09-03T01:43:43;17.00;91.70
33988;DHT22;37428;53.580;-1.666;2022-09-03T01:45:59;17.00;92.00
33988;DHT22;37428;53.580;-1.666;2022-09-03T01:49:30;17.00;92.00
33988;DHT22;37428;53.580;-1.666;2022-09-03T01:52:42;17.10;91.80
33988;DHT22;37428;53.580;-1.666;2022-09-03T01:59:54;16.90;92.30
33988;DHT22;37428;53.580;-1.666;2022-09-03T02:03:37;16.90;92.90
33988;DHT22;37428;53.580;-1.666;2022-09-03T02:10:26;16.80;93.50
33988;DHT22;37428;53.580;-1.666;2022-09-03T02:13:48;16.90;93.30
33988;DHT22;37428;53.580;-1.666;2022-09-03T02:17:40;16.80;93.70
33988;DHT22;37428;53.580;-1.666;2022-09-03T02:27:56;16.70;94.60
33988;DHT22;37428;53.580;-1.666;2022-09-03T02:31:27;16.80;94.20
33988;DHT22;37428;53.580;-1.666;2022-09-03T02:34:40;16.80;94.70
33988;DHT22;37428;53.580;-1.666;2022-09-03T02:38:13;16.80;94.40
33988;DHT22;37428;53.580;-1.666;2022-09-03T02:42:02;16.90;93.80
33988;DHT22;37428;53.580;-1.666;2022-09-03T02:45:07;16.80;94.40
33988;DHT22;37428;53.580;-1.666;2022-09-03T02:48:24;16.90;94.10
33988;DHT22;37428;53.580;-1.666;2022-09-03T02:51:32;16.90;94.10
33988;DHT22;37428;53.580;-1.666;2022-09-03T02:55:00;16.80;93.90
33988;DHT22;37428;53.580;-1.666;2022-09-03T02:58:32;16.80;94.50
33988;DHT22;37428;53.580;-1.666;2022-09-03T03:01:43;16.70;95.10
33988;DHT22;37428;53.580;-1.666;2022-09-03T03:08:21;16.50;96.40
33988;DHT22;37428;53.580;-1.666;2022-09-03T03:27:18;16.30;99.40
33988;DHT22;37428;53.580;-1.666;2022-09-03T03:30:35;16.30;99.00
33988;DHT22;37428;53.580;-1.666;2022-09-03T03:33:57;16.30;98.90
33988;DHT22;37428;53.580;-1.666;2022-09-03T03:37:28;16.40;98.50
33988;DHT22;37428;53.580;-1.666;2022-09-03T03:40:34;16.30;98.40
33988;DHT22;37428;53.580;-1.666;2022-09-03T03:49:31;16.30;99.10
33988;DHT22;37428;53.580;-1.666;2022-09-03T03:57:28;16.20;98.70
33988;DHT22;37428;53.580;-1.666;2022-09-03T03:59:01;16.20;98.60
33988;DHT22;37428;53.580;-1.666;2022-09-03T04:02:48;16.20;99.10
33988;DHT22;37428;53.580;-1.666;2022-09-03T04:06:41;16.20;99.00
33988;DHT22;37428;53.580;-1.666;2022-09-03T04:09:50;16.30;99.00
33988;DHT22;37428;53.580;-1.666;2022-09-03T04:13:16;16.40;98.60
33988;DHT22;37428;53.580;-1.666;2022-09-03T04:20:32;16.40;98.10
33988;DHT22;37428;53.580;-1.666;2022-09-03T04:23:51;16.40;97.80
33988;DHT22;37428;53.580;-1.666;2022-09-03T04:26:53;16.40;97.50
33988;DHT22;37428;53.580;-1.666;2022-09-03T04:29:55;16.40;97.70
33988;DHT22;37428;53.580;-1.666;2022-09-03T04:33:11;16.40;97.70
33988;DHT22;37428;53.580;-1.666;2022-09-03T04:36:28;16.30;98.30
33988;DHT22;37428;53.580;-1.666;2022-09-03T04:39:52;16.20;98.60
33988;DHT22;37428;53.580;-1.666;2022-09-03T04:50:16;16.10;99.90
33988;DHT22;37428;53.580;-1.666;2022-09-03T04:57:22;16.10;99.90
33988;DHT22;37428;53.580;-1.666;2022-09-03T05:00:57;16.10;99.90
33988;DHT22;37428;53.580;-1.666;2022-09-03T05:04:03;16.20;99.90
33988;DHT22;37428;53.580;-1.666;2022-09-03T05:10:57;16.30;99.20
33988;DHT22;37428;53.580;-1.666;2022-09-03T05:14:00;16.30;99.00
33988;DHT22;37428;53.580;-1.666;2022-09-03T05:17:19;16.20;99.20
33988;DHT22;37428;53.580;-1.666;2022-09-03T05:20:21;16.20;99.60
33988;DHT22;37428;53.580;-1.666;2022-09-03T05:23:30;16.30;99.40
33988;DHT22;37428;53.580;-1.666;2022-09-03T05:27:01;16.40;98.80
33988;DHT22;37428;53.580;-1.666;2022-09-03T05:30:21;16.50;98.50
33988;DHT22;37428;53.580;-1.666;2022-09-03T05:33:45;16.50;97.80
33988;DHT22;37428;53.580;-1.666;2022-09-03T05:37:05;16.50;97.60
33988;DHT22;37428;53.580;-1.666;2022-09-03T05:40:28;16.40;97.90
33988;DHT22;37428;53.580;-1.666;2022-09-03T05:47:50;16.30;98.80
33988;DHT22;37428;53.580;-1.666;2022-09-03T05:51:24;16.40;99.10
33988;DHT22;37428;53.580;-1.666;2022-09-03T05:54:35;16.30;99.00
33988;DHT22;37428;53.580;-1.666;2022-09-03T05:58:13;16.40;99.10
33988;DHT22;37428;53.580;-1.666;2022-09-03T06:20:28;16.40;99.00
33988;DHT22;37428;53.580;-1.666;2022-09-03T06:23:36;16.50;98.60
33988;DHT22;37428;53.580;-1.666;2022-09-03T06:26:52;16.50;98.40
33988;DHT22;37428;53.580;-1.666;2022-09-03T06:30:56;16.50;98.30
33988;DHT22;37428;53.580;-1.666;2022-09-03T06:34:11;16.50;98.10
33988;DHT22;37428;53.580;-1.666;2022-09-03T06:37:42;16.50;98.30
33988;DHT22;37428;53.580;-1.666;2022-09-03T06:41:53;16.60;97.60
33988;DHT22;37428;53.580;-1.666;2022-09-03T06:48:55;16.50;97.80
33988;DHT22;37428;53.580;-1.666;2022-09-03T06:54:17;16.50;98.30
33988;DHT22;37428;53.580;-1.666;2022-09-03T06:56:23;16.60;98.00
33988;DHT22;37428;53.580;-1.666;2022-09-03T06:59:57;16.60;98.30
33988;DHT22;37428;53.580;-1.666;2022-09-03T07:07:03;16.60;98.20
33988;DHT22;37428;53.580;-1.666;2022-09-03T07:10:54;16.60;98.10
33988;DHT22;37428;53.580;-1.666;2022-09-03T07:14:08;16.70;98.70
33988;DHT22;37428;53.580;-1.666;2022-09-03T07:21:01;16.60;98.70
33988;DHT22;37428;53.580;-1.666;2022-09-03T07:24:38;16.50;99.70
33988;DHT22;37428;53.580;-1.666;2022-09-03T07:28:35;16.60;99.90
33988;DHT22;37428;53.580;-1.666;2022-09-03T07:32:00;16.80;99.20
33988;DHT22;37428;53.580;-1.666;2022-09-03T07:35:14;16.70;98.80
33988;DHT22;37428;53.580;-1.666;2022-09-03T07:38:56;16.80;99.30
33988;DHT22;37428;53.580;-1.666;2022-09-03T07:42:12;16.80;98.70
33988;DHT22;37428;53.580;-1.666;2022-09-03T07:53:02;16.60;99.80
33988;DHT22;37428;53.580;-1.666;2022-09-03T07:58:14;16.60;99.90
33988;DHT22;37428;53.580;-1.666;2022-09-03T08:00:01;16.70;99.90
33988;DHT22;37428;53.580;-1.666;2022-09-03T08:03:26;16.80;99.80
33988;DHT22;37428;53.580;-1.666;2022-09-03T08:06:44;16.80;99.40
33988;DHT22;37428;53.580;-1.666;2022-09-03T08:14:35;17.00;98.90
33988;DHT22;37428;53.580;-1.666;2022-09-03T08:21:38;17.30;96.20
33988;DHT22;37428;53.580;-1.666;2022-09-03T08:25:04;17.50;95.80
33988;DHT22;37428;53.580;-1.666;2022-09-03T08:32:00;17.60;95.10
33988;DHT22;37428;53.580;-1.666;2022-09-03T08:35:03;17.90;93.90
33988;DHT22;37428;53.580;-1.666;2022-09-03T08:38:12;18.00;91.60
33988;DHT22;37428;53.580;-1.666;2022-09-03T08:41:45;18.10;90.60
33988;DHT22;37428;53.580;-1.666;2022-09-03T08:45:09;18.10;89.80
33988;DHT22;37428;53.580;-1.666;2022-09-03T08:52:23;18.00;90.90
33988;DHT22;37428;53.580;-1.666;2022-09-03T08:56:17;18.00;91.20
33988;DHT22;37428;53.580;-1.666;2022-09-03T08:59:23;18.00;90.70
33988;DHT22;37428;53.580;-1.666;2022-09-03T09:06:13;18.00;91.40
33988;DHT22;37428;53.580;-1.666;2022-09-03T09:09:29;17.90;91.60
33988;DHT22;37428;53.580;-1.666;2022-09-03T09:13:01;17.90;92.90
33988;DHT22;37428;53.580;-1.666;2022-09-03T09:16:09;18.00;92.30
33988;DHT22;37428;53.580;-1.666;2022-09-03T09:19:34;18.10;92.40
33988;DHT22;37428;53.580;-1.666;2022-09-03T09:26:35;18.40;90.80
33988;DHT22;37428;53.580;-1.666;2022-09-03T09:29:48;18.40;90.30
33988;DHT22;37428;53.580;-1.666;2022-09-03T09:33:29;18.30;90.90
33988;DHT22;37428;53.580;-1.666;2022-09-03T09:37:24;18.20;91.10
33988;DHT22;37428;53.580;-1.666;2022-09-03T09:40:46;18.10;92.30
33988;DHT22;37428;53.580;-1.666;2022-09-03T09:47:46;18.30;91.30
33988;DHT22;37428;53.580;-1.666;2022-09-03T09:51:31;18.40;90.70
33988;DHT22;37428;53.580;-1.666;2022-09-03T09:54:47;18.40;90.00
33988;DHT22;37428;53.580;-1.666;2022-09-03T09:58:32;18.50;90.10
33988;DHT22;37428;53.580;-1.666;2022-09-03T10:05:23;18.60;89.30
33988;DHT22;37428;53.580;-1.666;2022-09-03T10:08:50;18.60;89.20
33988;DHT22;37428;53.580;-1.666;2022-09-03T10:12:38;18.60;89.00
33988;DHT22;37428;53.580;-1.666;2022-09-03T10:16:41;18.60;89.30
33988;DHT22;37428;53.580;-1.666;2022-09-03T10:19:54;18.80;88.60
33988;DHT22;37428;53.580;-1.666;2022-09-03T10:26:52;18.80;88.20
33988;DHT22;37428;53.580;-1.666;2022-09-03T10:30:53;18.90;87.80
33988;DHT22;37428;53.580;-1.666;2022-09-03T10:35:22;19.00;87.70
33988;DHT22;37428;53.580;-1.666;2022-09-03T10:37:33;19.10;87.00
33988;DHT22;37428;53.580;-1.666;2022-09-03T10:41:30;19.10;86.00
33988;DHT22;37428;53.580;-1.666;2022-09-03T10:45:05;19.10;85.40
33988;DHT22;37428;53.580;-1.666;2022-09-03T10:52:41;19.20;84.60
33988;DHT22;37428;53.580;-1.666;2022-09-03T10:56:04;19.30;84.40
33988;DHT22;37428;53.580;-1.666;2022-09-03T10:59:41;19.40;83.40
33988;DHT22;37428;53.580;-1.666;2022-09-03T11:03:36;19.60;82.50
33988;DHT22;37428;53.580;-1.666;2022-09-03T11:06:53;19.70;81.00
33988;DHT22;37428;53.580;-1.666;2022-09-03T11:10:28;19.90;79.60
33988;DHT22;37428;53.580;-1.666;2022-09-03T11:13:58;20.10;79.20
33988;DHT22;37428;53.580;-1.666;2022-09-03T11:29:03;21.30;73.40
33988;DHT22;37428;53.580;-1.666;2022-09-03T11:32:23;21.30;72.20
33988;DHT22;37428;53.580;-1.666;2022-09-03T11:36:04;21.20;71.70
33988;DHT22;37428;53.580;-1.666;2022-09-03T11:39:32;21.10;72.10
33988;DHT22;37428;53.580;-1.666;2022-09-03T11:43:03;21.10;71.80
33988;DHT22;37428;53.580;-1.666;2022-09-03T11:46:09;21.30;70.80
33988;DHT22;37428;53.580;-1.666;2022-09-03T11:49:43;21.40;70.50
33988;DHT22;37428;53.580;-1.666;2022-09-03T11:53:08;21.30;70.30
33988;DHT22;37428;53.580;-1.666;2022-09-03T11:56:40;21.10;70.40
33988;DHT22;37428;53.580;-1.666;2022-09-03T12:00:12;21.10;70.70
33988;DHT22;37428;53.580;-1.666;2022-09-03T12:03:37;21.20;70.00
33988;DHT22;37428;53.580;-1.666;2022-09-03T12:10:55;21.40;67.70
33988;DHT22;37428;53.580;-1.666;2022-09-03T12:21:47;21.40;67.00
33988;DHT22;37428;53.580;-1.666;2022-09-03T12:24:50;21.60;66.00
33988;DHT22;37428;53.580;-1.666;2022-09-03T12:28:15;21.60;65.70
33988;DHT22;37428;53.580;-1.666;2022-09-03T12:31:42;21.70;66.20
33988;DHT22;37428;53.580;-1.666;2022-09-03T12:35:40;21.80;64.80
33988;DHT22;37428;53.580;-1.666;2022-09-03T12:39:06;21.90;65.50
33988;DHT22;37428;53.580;-1.666;2022-09-03T12:42:12;22.00;65.50
33988;DHT22;37428;53.580;-1.666;2022-09-03T12:49:14;22.30;63.20
33988;DHT22;37428;53.580;-1.666;2022-09-03T12:52:38;22.40;61.80
33988;DHT22;37428;53.580;-1.666;2022-09-03T12:56:08;22.40;63.20
33988;DHT22;37428;53.580;-1.666;2022-09-03T12:59:22;22.30;62.70
33988;DHT22;37428;53.580;-1.666;2022-09-03T13:02:37;22.30;62.60
33988;DHT22;37428;53.580;-1.666;2022-09-03T13:06:02;22.30;62.00
33988;DHT22;37428;53.580;-1.666;2022-09-03T13:09:21;22.40;61.70
33988;DHT22;37428;53.580;-1.666;2022-09-03T13:12:58;22.40;63.00
33988;DHT22;37428;53.580;-1.666;2022-09-03T13:16:45;22.50;59.60
33988;DHT22;37428;53.580;-1.666;2022-09-03T13:20:19;22.60;58.70
33988;DHT22;37428;53.580;-1.666;2022-09-03T13:24:04;22.60;59.30
33988;DHT22;37428;53.580;-1.666;2022-09-03T13:27:28;22.70;58.80
33988;DHT22;37428;53.580;-1.666;2022-09-03T13:30:58;22.80;57.60
33988;DHT22;37428;53.580;-1.666;2022-09-03T13:34:28;22.70;58.20
33988;DHT22;37428;53.580;-1.666;2022-09-03T13:38:02;22.80;58.80
33988;DHT22;37428;53.580;-1.666;2022-09-03T13:41:36;22.90;58.20
33988;DHT22;37428;53.580;-1.666;2022-09-03T13:48:27;22.80;58.20
33988;DHT22;37428;53.580;-1.666;2022-09-03T13:51:54;22.60;58.70
33988;DHT22;37428;53.580;-1.666;2022-09-03T13:55:25;22.60;59.00
33988;DHT22;37428;53.580;-1.666;2022-09-03T13:58:59;22.50;59.50
33988;DHT22;37428;53.580;-1.666;2022-09-03T14:03:04;22.40;59.00
33988;DHT22;37428;53.580;-1.666;2022-09-03T14:06:19;22.40;59.00
33988;DHT22;37428;53.580;-1.666;2022-09-03T14:09:38;22.40;59.00
33988;DHT22;37428;53.580;-1.666;2022-09-03T14:13:20;22.40;59.20
33988;DHT22;37428;53.580;-1.666;2022-09-03T14:16:46;22.40;59.80
33988;DHT22;37428;53.580;-1.666;2022-09-03T14:20:27;22.40;58.70
33988;DHT22;37428;53.580;-1.666;2022-09-03T14:25:46;22.30;59.40
33988;DHT22;37428;53.580;-1.666;2022-09-03T14:27:24;22.30;58.80
33988;DHT22;37428;53.580;-1.666;2022-09-03T14:30:57;22.30;58.90
33988;DHT22;37428;53.580;-1.666;2022-09-03T14:35:42;22.30;58.60
33988;DHT22;37428;53.580;-1.666;2022-09-03T14:45:33;22.30;58.80
33988;DHT22;37428;53.580;-1.666;2022-09-03T14:56:12;22.40;58.20
33988;DHT22;37428;53.580;-1.666;2022-09-03T14:59:41;22.30;58.00
33988;DHT22;37428;53.580;-1.666;2022-09-03T15:03:21;22.30;57.90
33988;DHT22;37428;53.580;-1.666;2022-09-03T15:07:20;22.30;58.30
33988;DHT22;37428;53.580;-1.666;2022-09-03T15:11:02;22.30;58.00
33988;DHT22;37428;53.580;-1.666;2022-09-03T15:14:17;22.40;57.80
33988;DHT22;37428;53.580;-1.666;2022-09-03T15:17:49;22.40;57.50
33988;DHT22;37428;53.580;-1.666;2022-09-03T15:24:47;22.30;57.20
33988;DHT22;37428;53.580;-1.666;2022-09-03T15:28:11;22.30;57.00
33988;DHT22;37428;53.580;-1.666;2022-09-03T15:32:09;22.30;57.10
33988;DHT22;37428;53.580;-1.666;2022-09-03T15:38:46;22.20;57.00
33988;DHT22;37428;53.580;-1.666;2022-09-03T15:42:20;22.20;57.30
33988;DHT22;37428;53.580;-1.666;2022-09-03T15:45:50;22.10;57.60
33988;DHT22;37428;53.580;-1.666;2022-09-03T15:49:20;22.00;57.60
33988;DHT22;37428;53.580;-1.666;2022-09-03T15:52:36;21.90;58.70
33988;DHT22;37428;53.580;-1.666;2022-09-03T15:56:48;21.90;58.60
33988;DHT22;37428;53.580;-1.666;2022-09-03T15:59:54;21.90;58.80
33988;DHT22;37428;53.580;-1.666;2022-09-03T16:07:17;21.90;59.00
33988;DHT22;37428;53.580;-1.666;2022-09-03T16:10:36;21.90;59.00
33988;DHT22;37428;53.580;-1.666;2022-09-03T16:13:58;22.00;59.20
33988;DHT22;37428;53.580;-1.666;2022-09-03T16:17:12;21.90;59.40
33988;DHT22;37428;53.580;-1.666;2022-09-03T16:20:42;21.90;59.00
33988;DHT22;37428;53.580;-1.666;2022-09-03T16:24:45;21.80;58.80
33988;DHT22;37428;53.580;-1.666;2022-09-03T16:28:14;21.70;58.90
33988;DHT22;37428;53.580;-1.666;2022-09-03T16:31:31;21.50;59.30
33988;DHT22;37428;53.580;-1.666;2022-09-03T16:34:56;21.50;59.50
33988;DHT22;37428;53.580;-1.666;2022-09-03T16:38:42;21.50;59.90
33988;DHT22;37428;53.580;-1.666;2022-09-03T16:42:02;21.50;59.60
33988;DHT22;37428;53.580;-1.666;2022-09-03T16:45:39;21.50;59.60
33988;DHT22;37428;53.580;-1.666;2022-09-03T16:49:09;21.40;59.40
33988;DHT22;37428;53.580;-1.666;2022-09-03T16:52:38;21.40;59.70
33988;DHT22;37428;53.580;-1.666;2022-09-03T16:56:23;21.40;59.60
33988;DHT22;37428;53.580;-1.666;2022-09-03T16:59:50;21.40;60.10
33988;DHT22;37428;53.580;-1.666;2022-09-03T17:07:05;21.30;60.30
33988;DHT22;37428;53.580;-1.666;2022-09-03T17:14:21;21.20;61.20
33988;DHT22;37428;53.580;-1.666;2022-09-03T17:17:51;21.20;61.70
33988;DHT22;37428;53.580;-1.666;2022-09-03T17:25:01;21.10;62.20
33988;DHT22;37428;53.580;-1.666;2022-09-03T17:28:19;21.00;62.40
33988;DHT22;37428;53.580;-1.666;2022-09-03T17:31:49;21.00;62.70
33988;DHT22;37428;53.580;-1.666;2022-09-03T17:35:03;20.90;63.10
33988;DHT22;37428;53.580;-1.666;2022-09-03T17:38:22;20.90;63.00
33988;DHT22;37428;53.580;-1.666;2022-09-03T17:43:26;20.90;63.10
33988;DHT22;37428;53.580;-1.666;2022-09-03T17:45:40;20.90;63.40
33988;DHT22;37428;53.580;-1.666;2022-09-03T17:49:13;20.90;63.30
33988;DHT22;37428;53.580;-1.666;2022-09-03T17:54:13;20.80;63.70
33988;DHT22;37428;53.580;-1.666;2022-09-03T17:56:39;20.80;63.90
33988;DHT22;37428;53.580;-1.666;2022-09-03T18:00:20;20.80;64.00
33988;DHT22;37428;53.580;-1.666;2022-09-03T18:03:40;20.70;64.30
33988;DHT22;37428;53.580;-1.666;2022-09-03T18:07:04;20.70;64.50
33988;DHT22;37428;53.580;-1.666;2022-09-03T18:10:47;20.70;64.50
33988;DHT22;37428;53.580;-1.666;2022-09-03T18:14:03;20.70;64.60
33988;DHT22;37428;53.580;-1.666;2022-09-03T18:17:16;20.70;64.70
33988;DHT22;37428;53.580;-1.666;2022-09-03T18:20:39;20.70;65.00
33988;DHT22;37428;53.580;-1.666;2022-09-03T18:24:05;20.70;65.00
33988;DHT22;37428;53.580;-1.666;2022-09-03T18:27:35;20.70;65.20
33988;DHT22;37428;53.580;-1.666;2022-09-03T18:31:02;20.70;65.20
33988;DHT22;37428;53.580;-1.666;2022-09-03T18:34:58;20.80;65.40
33988;DHT22;37428;53.580;-1.666;2022-09-03T18:38:25;20.70;65.40
33988;DHT22;37428;53.580;-1.666;2022-09-03T18:42:13;20.60;65.70
33988;DHT22;37428;53.580;-1.666;2022-09-03T18:45:58;20.60;65.80
33988;DHT22;37428;53.580;-1.666;2022-09-03T18:49:25;20.60;65.90
33988;DHT22;37428;53.580;-1.666;2022-09-03T18:52:54;20.50;66.10
33988;DHT22;37428;53.580;-1.666;2022-09-03T18:56:36;20.50;66.10
33988;DHT22;37428;53.580;-1.666;2022-09-03T19:00:22;20.50;66.00
33988;DHT22;37428;53.580;-1.666;2022-09-03T19:03:55;20.50;66.00
33988;DHT22;37428;53.580;-1.666;2022-09-03T19:09:05;20.40;66.20
33988;DHT22;37428;53.580;-1.666;2022-09-03T19:11:24;20.40;66.30
33988;DHT22;37428;53.580;-1.666;2022-09-03T19:19:12;20.40;66.70
33988;DHT22;37428;53.580;-1.666;2022-09-03T19:24:29;20.40;66.80
33988;DHT22;37428;53.580;-1.666;2022-09-03T19:26:43;20.40;66.50
33988;DHT22;37428;53.580;-1.666;2022-09-03T19:30:23;20.30;66.50
33988;DHT22;37428;53.580;-1.666;2022-09-03T19:33:55;20.30;66.60
33988;DHT22;37428;53.580;-1.666;2022-09-03T19:41:10;20.30;66.60
33988;DHT22;37428;53.580;-1.666;2022-09-03T19:44:45;20.20;67.20
33988;DHT22;37428;53.580;-1.666;2022-09-03T19:48:32;20.10;67.20
33988;DHT22;37428;53.580;-1.666;2022-09-03T19:52:17;20.10;67.40
33988;DHT22;37428;53.580;-1.666;2022-09-03T19:55:56;20.00;68.50
33988;DHT22;37428;53.580;-1.666;2022-09-03T19:59:51;20.00;68.70
33988;DHT22;37428;53.580;-1.666;2022-09-03T20:03:25;19.90;69.20
33988;DHT22;37428;53.580;-1.666;2022-09-03T20:06:52;19.80;68.30
33988;DHT22;37428;53.580;-1.666;2022-09-03T20:10:17;19.70;68.70
33988;DHT22;37428;53.580;-1.666;2022-09-03T20:13:26;19.70;67.90
33988;DHT22;37428;53.580;-1.666;2022-09-03T20:17:04;19.60;68.00
33988;DHT22;37428;53.580;-1.666;2022-09-03T20:20:30;19.50;67.80
33988;DHT22;37428;53.580;-1.666;2022-09-03T20:23:46;19.40;68.00
33988;DHT22;37428;53.580;-1.666;2022-09-03T20:27:17;19.40;68.20
33988;DHT22;37428;53.580;-1.666;2022-09-03T20:30:44;19.40;68.30
33988;DHT22;37428;53.580;-1.666;2022-09-03T20:34:16;19.40;68.40
33988;DHT22;37428;53.580;-1.666;2022-09-03T20:37:48;19.40;68.30
33988;DHT22;37428;53.580;-1.666;2022-09-03T20:41:20;19.40;68.30
33988;DHT22;37428;53.580;-1.666;2022-09-03T20:45:02;19.30;68.70
33988;DHT22;37428;53.580;-1.666;2022-09-03T20:48:13;19.30;68.80
33988;DHT22;37428;53.580;-1.666;2022-09-03T20:51:50;19.30;68.60
33988;DHT22;37428;53.580;-1.666;2022-09-03T20:55:08;19.30;68.80
33988;DHT22;37428;53.580;-1.666;2022-09-03T20:58:34;19.20;69.20
33988;DHT22;37428;53.580;-1.666;2022-09-03T21:05:52;19.10;69.10
33988;DHT22;37428;53.580;-1.666;2022-09-03T21:09:47;19.10;69.20
33988;DHT22;37428;53.580;-1.666;2022-09-03T21:12:43;19.10;68.80
33988;DHT22;37428;53.580;-1.666;2022-09-03T21:16:11;19.10;68.60
33988;DHT22;37428;53.580;-1.666;2022-09-03T21:19:25;19.10;68.60
33988;DHT22;37428;53.580;-1.666;2022-09-03T21:22:56;19.00;68.60
33988;DHT22;37428;53.580;-1.666;2022-09-03T21:26:36;19.00;68.80
33988;DHT22;37428;53.580;-1.666;2022-09-03T21:29:50;19.10;68.80
33988;DHT22;37428;53.580;-1.666;2022-09-03T21:33:08;19.00;68.70
33988;DHT22;37428;53.580;-1.666;2022-09-03T21:36:15;19.00;68.70
33988;DHT22;37428;53.580;-1.666;2022-09-03T21:39:33;19.00;68.80
33988;DHT22;37428;53.580;-1.666;2022-09-03T21:42:45;19.00;69.10
33988;DHT22;37428;53.580;-1.666;2022-09-03T21:46:29;19.00;68.80
33988;DHT22;37428;53.580;-1.666;2022-09-03T21:50:02;19.00;68.80
33988;DHT22;37428;53.580;-1.666;2022-09-03T21:53:28;19.00;68.90
33988;DHT22;37428;53.580;-1.666;2022-09-03T22:00:27;19.10;68.90
33988;DHT22;37428;53.580;-1.666;2022-09-03T22:03:55;19.00;69.20
33988;DHT22;37428;53.580;-1.666;2022-09-03T22:07:39;19.00;69.30
33988;DHT22;37428;53.580;-1.666;2022-09-03T22:13:05;19.10;69.40
33988;DHT22;37428;53.580;-1.666;2022-09-03T22:14:58;19.10;69.50
33988;DHT22;37428;53.580;-1.666;2022-09-03T22:18:21;19.10;69.40
33988;DHT22;37428;53.580;-1.666;2022-09-03T22:21:33;19.00;69.20
33988;DHT22;37428;53.580;-1.666;2022-09-03T22:24:51;19.00;68.90
33988;DHT22;37428;53.580;-1.666;2022-09-03T22:28:37;19.00;68.80
33988;DHT22;37428;53.580;-1.666;2022-09-03T22:32:10;18.90;68.60
33988;DHT22;37428;53.580;-1.666;2022-09-03T22:35:46;18.90;68.60
33988;DHT22;37428;53.580;-1.666;2022-09-03T22:39:31;18.80;68.50
33988;DHT22;37428;53.580;-1.666;2022-09-03T22:43:33;18.70;68.60
33988;DHT22;37428;53.580;-1.666;2022-09-03T22:47:17;18.70;68.60
33988;DHT22;37428;53.580;-1.666;2022-09-03T22:50:50;18.60;68.50
33988;DHT22;37428;53.580;-1.666;2022-09-03T22:54:18;18.60;68.50
33988;DHT22;37428;53.580;-1.666;2022-09-03T22:57:56;18.50;68.20
33988;DHT22;37428;53.580;-1.666;2022-09-03T23:05:35;18.50;67.20
33988;DHT22;37428;53.580;-1.666;2022-09-03T23:09:06;18.40;66.60
33988;DHT22;37428;53.580;-1.666;2022-09-03T23:27:12;18.40;64.10
33988;DHT22;37428;53.580;-1.666;2022-09-03T23:30:39;18.40;63.40
33988;DHT22;37428;53.580;-1.666;2022-09-03T23:33:49;18.30;63.30
33988;DHT22;37428;53.580;-1.666;2022-09-03T23:37:46;18.30;63.70
33988;DHT22;37428;53.580;-1.666;2022-09-03T23:41:06;18.30;64.10
33988;DHT22;37428;53.580;-1.666;2022-09-03T23:44:39;18.20;64.20
33988;DHT22;37428;53.580;-1.666;2022-09-03T23:59:14;18.10;65.10
